createdAt,value
2018-05-07T00:00:03.080Z,11.1
2018-05-07T00:15:02.398Z,11.1
2018-05-07T00:30:02.726Z,11.1
2018-05-07T00:45:03.076Z,11.1
2018-05-07T01:00:02.365Z,11.1
2018-05-07T01:15:02.587Z,11
2018-05-07T01:30:02.897Z,11
2018-05-07T01:45:03.215Z,11
2018-05-07T02:00:02.487Z,11
2018-05-07T02:15:02.709Z,11
2018-05-07T02:30:03.021Z,11
2018-05-07T02:45:02.347Z,11
2018-05-07T03:00:02.664Z,11
2018-05-07T03:15:02.899Z,11
2018-05-07T03:30:02.328Z,10.9
2018-05-07T03:45:02.656Z,10.9
2018-05-07T04:00:02.879Z,10.9
2018-05-07T04:15:03.147Z,10.9
2018-05-07T04:30:02.522Z,10.9
2018-05-07T04:45:02.817Z,10.9
2018-05-07T05:00:03.073Z,10.9
2018-05-07T05:15:02.380Z,10.9
2018-05-07T05:30:02.753Z,10.9
2018-05-07T05:45:02.980Z,10.9
2018-05-07T06:00:02.272Z,10.9
2018-05-07T06:15:02.777Z,10.9
2018-05-07T06:30:02.556Z,11
2018-05-07T06:45:02.859Z,11
2018-05-07T07:00:03.222Z,11.1
2018-05-07T07:15:02.572Z,11.1
2018-05-07T07:30:02.903Z,11.1
2018-05-07T07:45:03.241Z,11.1
2018-05-07T08:00:02.667Z,11.2
2018-05-07T08:15:02.935Z,11.2
2018-05-07T08:30:02.422Z,11.3
2018-05-07T08:45:02.735Z,11.3
2018-05-07T09:00:03.026Z,11.4
2018-05-07T09:15:02.370Z,11.4
2018-05-07T09:30:02.965Z,11.5
2018-05-07T09:45:02.260Z,11.6
2018-05-07T10:00:02.546Z,11.6
2018-05-07T10:15:02.906Z,11.7
2018-05-07T10:30:02.218Z,11.8
2018-05-07T10:45:02.518Z,11.8
2018-05-07T11:00:02.811Z,11.8
2018-05-07T11:15:03.083Z,11.9
2018-05-07T11:30:02.493Z,11.9
2018-05-07T11:45:02.713Z,12
2018-05-07T12:00:02.967Z,12
2018-05-07T12:15:02.363Z,12.1
2018-05-07T12:30:02.722Z,12.1
2018-05-07T12:45:02.890Z,12.1
2018-05-07T13:00:03.247Z,12.1
2018-05-07T13:15:02.521Z,12.1
2018-05-07T13:30:02.855Z,12.1
2018-05-07T13:45:03.101Z,12.1
2018-05-07T14:00:02.459Z,12.1
2018-05-07T14:15:02.739Z,12.1
2018-05-07T14:30:03.089Z,12.1
2018-05-07T14:45:02.484Z,12.1
2018-05-07T15:00:02.746Z,12.1
2018-05-07T15:15:03.053Z,12.1
2018-05-07T15:30:02.446Z,12.1
2018-05-07T15:45:02.675Z,12.1
2018-05-07T16:00:02.961Z,12.1
2018-05-07T16:15:02.389Z,12
2018-05-07T16:30:02.834Z,12
2018-05-07T16:45:03.111Z,12
2018-05-07T17:00:02.442Z,11.9
2018-05-07T17:15:02.723Z,11.9
2018-05-07T17:30:03.001Z,11.9
2018-05-07T17:45:02.418Z,11.8
2018-05-07T18:00:02.768Z,11.8
2018-05-07T18:15:03.158Z,11.8
2018-05-07T18:30:02.530Z,11.7
2018-05-07T18:45:02.787Z,11.6
2018-05-07T19:00:03.017Z,11.6
2018-05-07T19:15:02.331Z,11.6
2018-05-07T19:30:02.694Z,11.5
2018-05-07T19:45:02.898Z,11.5
2018-05-07T20:00:03.195Z,11.4
2018-05-07T20:15:02.514Z,11.4
2018-05-07T20:30:02.812Z,11.4
2018-05-07T20:45:03.103Z,11.4
2018-05-07T21:00:02.436Z,11.3
2018-05-07T21:15:02.677Z,11.3
2018-05-07T21:30:03.032Z,11.3
2018-05-07T21:45:02.346Z,11.3
2018-05-07T22:00:02.664Z,11.3
2018-05-07T22:15:02.909Z,11.3
2018-05-07T22:30:02.290Z,11.3
2018-05-07T22:45:02.583Z,11.3
2018-05-07T23:00:02.803Z,11.3
2018-05-07T23:15:03.129Z,11.3
2018-05-07T23:30:02.524Z,11.4
2018-05-07T23:45:02.825Z,11.4
